Auburn-Lewiston, ME

3:06 PM EST on January 19, 2018 (GMT -0500)
Auburn-Lewiston Municipal

Weather History for KLEW - May, 2013

Change the Weather History Date:

Saturday, May 25, 2013

  Actual Average Record
Temperature  
Mean Temperature 46 °F -  
Max Temperature 48 °F 63 °F 91 °F (2007)
Min Temperature 44 °F 43 °F 37 °F (2001)
Degree Days  
Heating Degree Days 19    
Moisture  
Dew Point 44 °F    
Average Humidity 89    
Maximum Humidity 93    
Minimum Humidity 82    
Precipitation  
Precipitation 0.00 in - - ()
Sea Level Pressure  
Sea Level Pressure 29.75 in    
Wind  
Wind Speed 15 mph (North)    
Max Wind Speed 26 mph    
Max Gust Speed 34 mph    
Visibility 5 miles    
Events      
Averages and records for this station are not official NWS values.
T = Trace of Precipitation, MM = Missing Value Source: NWS Daily Summary

Daily Weather History Graph

Daily Weather History Graph

Search for Another Location

Airport or City:

Trip Planner

Search our weather history database for the weather conditions in past years. The results will help you decide how hot, cold, wet, or windy it might be!

Date:

Astronomy

May. 25, 2013 Rise Set
Actual Time 5:05 AM EDT 8:11 PM EDT
Civil Twilight 4:30 AM EDT 8:46 PM EDT
Nautical Twilight 3:46 AM EDT 9:30 PM EDT
Astronomical Twilight 2:52 AM EDT 10:24 PM EDT
Moon 8:55 PM EDT (5/25) 5:29 AM EDT (5/25)
Length of Visible Light 16h 15m
Length of Day
15h 05m
Full, 100% of the Moon is Illuminated
May 25
Full
May 31
Last Quarter
Jun 8
New
Jun 16
First Quarter
Jun 23
Full

Hourly Weather History & Observations

Time (EDT) Temp. Windchill Dew Point Humidity Pressure Visibility Wind Dir Wind Speed Gust Speed Precip Events Conditions
12:15 AM 48.2 °F - 44.6 °F 87% 29.85 in 7.0 mi North 12.7 mph - N/A   Overcast
12:35 AM 48.2 °F - 44.6 °F 87% 29.85 in 9.0 mi North 12.7 mph - N/A   Overcast
12:55 AM 46.4 °F 40.4 °F 44.6 °F 93% 29.85 in 8.0 mi North 13.8 mph 19.6 mph N/A   Overcast
1:15 AM 46.4 °F 40.4 °F 42.8 °F 87% 29.85 in 5.0 mi North 13.8 mph - N/A   Overcast
1:35 AM 46.4 °F 40.4 °F 44.6 °F 93% 29.85 in 4.0 mi North 13.8 mph 20.7 mph N/A   Overcast
1:55 AM 46.4 °F 40.1 °F 42.8 °F 87% 29.84 in 4.0 mi North 15.0 mph 23.0 mph N/A   Overcast
2:15 AM 46.4 °F 39.8 °F 42.8 °F 87% 29.83 in 7.0 mi North 16.1 mph 20.7 mph N/A   Overcast
2:35 AM 46.4 °F 41.1 °F 42.8 °F 87% 29.82 in 6.0 mi North 11.5 mph 19.6 mph N/A   Overcast
2:55 AM 46.4 °F 39.8 °F 42.8 °F 87% 29.82 in 5.0 mi North 16.1 mph 19.6 mph N/A   Overcast
3:15 AM 46.4 °F 40.4 °F 42.8 °F 87% 29.83 in 5.0 mi North 13.8 mph 23.0 mph N/A   Overcast
3:35 AM 46.4 °F 40.1 °F 42.8 °F 87% 29.82 in 6.0 mi North 15.0 mph 21.9 mph N/A   Overcast
3:55 AM 46.4 °F 40.4 °F 42.8 °F 87% 29.82 in 6.0 mi North 13.8 mph 21.9 mph N/A   Overcast
4:15 AM 46.4 °F 40.1 °F 42.8 °F 87% 29.81 in 5.0 mi North 15.0 mph - N/A   Overcast
4:35 AM 46.4 °F 40.7 °F 42.8 °F 87% 29.80 in 8.0 mi North 12.7 mph 19.6 mph N/A   Overcast
4:55 AM 46.4 °F 39.8 °F 42.8 °F 87% 29.81 in 9.0 mi North 16.1 mph - N/A   Overcast
5:15 AM 46.4 °F 39.8 °F 42.8 °F 87% 29.81 in 5.0 mi North 16.1 mph 19.6 mph N/A   Overcast
5:35 AM 46.4 °F 39.8 °F 44.6 °F 93% 29.79 in 2.0 mi North 16.1 mph 21.9 mph N/A   Overcast
5:55 AM 46.4 °F 40.1 °F 44.6 °F 93% 29.79 in 4.0 mi NNE 15.0 mph 20.7 mph N/A   Overcast
6:15 AM 46.4 °F 39.8 °F 44.6 °F 93% 29.77 in 4.0 mi North 16.1 mph 24.2 mph N/A   Overcast
6:35 AM 46.4 °F 40.7 °F 44.6 °F 93% 29.77 in 4.0 mi NNE 12.7 mph 23.0 mph N/A   Overcast
6:55 AM 46.4 °F 39.5 °F 44.6 °F 93% 29.76 in 5.0 mi North 17.3 mph 21.9 mph N/A   Overcast
7:15 AM 46.4 °F 39.5 °F 44.6 °F 93% 29.76 in 6.0 mi NNE 17.3 mph 21.9 mph N/A   Overcast
7:35 AM 46.4 °F 41.1 °F 44.6 °F 93% 29.76 in 2.0 mi North 11.5 mph 20.7 mph N/A   Overcast
7:55 AM 46.4 °F 40.1 °F 44.6 °F 93% 29.76 in 2.5 mi NNE 15.0 mph 25.3 mph N/A   Overcast
8:15 AM 46.4 °F 40.7 °F 44.6 °F 93% 29.77 in 2.0 mi North 12.7 mph 24.2 mph N/A   Overcast
8:35 AM 46.4 °F 40.4 °F 44.6 °F 93% 29.77 in 1.5 mi North 13.8 mph 19.6 mph N/A   Overcast
8:55 AM 46.4 °F 40.7 °F 44.6 °F 93% 29.77 in 1.5 mi North 12.7 mph 23.0 mph N/A   Overcast
9:15 AM 46.4 °F 40.4 °F 44.6 °F 93% 29.77 in 2.5 mi North 13.8 mph 18.4 mph N/A   Overcast
9:35 AM 46.4 °F 40.7 °F 44.6 °F 93% 29.77 in 2.5 mi North 12.7 mph - N/A   Overcast
9:55 AM 48.2 °F - 44.6 °F 87% 29.76 in 4.0 mi North 16.1 mph 20.7 mph N/A   Overcast
10:15 AM 46.4 °F 39.8 °F 44.6 °F 93% 29.75 in 3.0 mi North 16.1 mph 20.7 mph N/A   Overcast
10:35 AM 48.2 °F - 44.6 °F 87% 29.76 in 2.5 mi North 15.0 mph 21.9 mph N/A   Overcast
10:55 AM 48.2 °F - 44.6 °F 87% 29.77 in 2.5 mi North 13.8 mph - N/A   Overcast
11:15 AM 48.2 °F - 44.6 °F 87% 29.77 in 3.0 mi North 13.8 mph - N/A   Overcast
11:35 AM 48.2 °F - 44.6 °F 87% 29.76 in 4.0 mi North 16.1 mph - N/A   Overcast
11:55 AM 48.2 °F - 44.6 °F 87% 29.76 in 3.0 mi North 13.8 mph 19.6 mph N/A   Overcast
12:15 PM 48.2 °F - 44.6 °F 87% 29.77 in 3.0 mi North 19.6 mph 27.6 mph N/A   Overcast
12:35 PM 48.2 °F - 44.6 °F 87% 29.76 in 5.0 mi NNE 16.1 mph - N/A   Overcast
12:55 PM 48.2 °F - 44.6 °F 87% 29.75 in 7.0 mi NNE 21.9 mph 32.2 mph N/A   Overcast
1:15 PM 48.2 °F - 44.6 °F 87% 29.75 in 4.0 mi North 21.9 mph 31.1 mph N/A   Overcast
1:36 PM 48.2 °F - 44.6 °F 87% 29.74 in 5.0 mi NNE 23.0 mph 28.8 mph N/A   Overcast
2:15 PM 48.2 °F - 44.6 °F 87% 29.73 in 9.0 mi NNE 26.5 mph 32.2 mph N/A   Overcast
2:35 PM 48.2 °F - 44.6 °F 87% 29.73 in 10.0 mi NNE 16.1 mph 29.9 mph N/A   Overcast
2:55 PM 48.2 °F - 44.6 °F 87% 29.73 in 5.0 mi NNE 25.3 mph 31.1 mph N/A   Overcast
3:15 PM 48.2 °F - 44.6 °F 87% 29.72 in 10.0 mi North 20.7 mph 29.9 mph N/A   Mostly Cloudy
3:35 PM 48.2 °F - 44.6 °F 87% 29.71 in 8.0 mi North 24.2 mph 28.8 mph N/A   Overcast
3:55 PM 48.2 °F - 44.6 °F 87% 29.71 in 8.0 mi North 23.0 mph - N/A   Overcast
4:16 PM 48.2 °F - 42.8 °F 82% 29.71 in 10.0 mi NNE 21.9 mph 34.5 mph N/A   Overcast
4:35 PM 46.4 °F 38.1 °F 42.8 °F 87% 29.71 in 10.0 mi North 24.2 mph 32.2 mph N/A   Overcast
4:55 PM 46.4 °F 38.1 °F 42.8 °F 87% 29.71 in 10.0 mi North 24.2 mph 29.9 mph N/A   Overcast
5:15 PM 48.2 °F - 42.8 °F 82% 29.71 in 10.0 mi North 16.1 mph 29.9 mph N/A   Overcast
5:35 PM 48.2 °F - 42.8 °F 82% 29.71 in 10.0 mi North 17.3 mph 26.5 mph N/A   Overcast
5:55 PM 46.4 °F 39.8 °F 42.8 °F 87% 29.70 in 7.0 mi North 16.1 mph 24.2 mph N/A   Overcast
6:15 PM 46.4 °F 39.2 °F 42.8 °F 87% 29.70 in 5.0 mi North 18.4 mph 23.0 mph N/A   Overcast
6:35 PM 46.4 °F 39.5 °F 42.8 °F 87% 29.70 in 2.0 mi North 17.3 mph 24.2 mph N/A   Overcast
6:55 PM 46.4 °F 38.7 °F 42.8 °F 87% 29.70 in 1.8 mi North 20.7 mph 25.3 mph N/A   Overcast
7:15 PM 44.6 °F 38.1 °F 42.8 °F 93% 29.70 in 2.0 mi North 13.8 mph 25.3 mph N/A   Overcast
7:35 PM 44.6 °F 38.4 °F 42.8 °F 93% 29.69 in 5.0 mi North 12.7 mph 23.0 mph N/A   Overcast
7:55 PM 44.6 °F 37.4 °F 42.8 °F 93% 29.69 in 2.5 mi North 16.1 mph 23.0 mph N/A   Overcast
8:35 PM 44.6 °F 37.8 °F 42.8 °F 93% 29.68 in 4.0 mi NNE 15.0 mph 24.2 mph N/A   Overcast
9:15 PM 44.6 °F 37.4 °F 42.8 °F 93% 29.69 in 5.0 mi NNE 16.1 mph 27.6 mph N/A   Overcast
9:35 PM 44.6 °F 37.2 °F 42.8 °F 93% 29.68 in 5.0 mi North 17.3 mph 23.0 mph N/A   Overcast
9:55 PM 44.6 °F 37.2 °F 42.8 °F 93% 29.68 in 9.0 mi NNE 17.3 mph 24.2 mph N/A   Overcast
10:15 PM 44.6 °F 37.2 °F 42.8 °F 93% 29.68 in 8.0 mi NNE 17.3 mph 28.8 mph N/A   Overcast
10:35 PM 44.6 °F 38.1 °F 42.8 °F 93% 29.68 in 5.0 mi NNE 13.8 mph 19.6 mph N/A   Overcast
10:55 PM 44.6 °F 37.2 °F 42.8 °F 93% 29.67 in 4.0 mi NNE 17.3 mph 24.2 mph N/A   Overcast
11:15 PM 44.6 °F 38.1 °F 42.8 °F 93% 29.67 in 4.0 mi NNE 13.8 mph - N/A   Overcast
11:35 PM 44.6 °F 38.1 °F 42.8 °F 93% 29.67 in 9.0 mi NNE 13.8 mph 21.9 mph N/A   Overcast
11:55 PM 44.6 °F 38.1 °F 42.8 °F 93% 29.67 in 8.0 mi NNE 13.8 mph - N/A   Overcast